sensor_id;sensor_type;location;lat;lon;timestamp;temperature;humidity
20005;DHT22;68409;45.498;-73.582;2023-03-31T00:00:36;1.60;45.60
20005;DHT22;68409;45.498;-73.582;2023-03-31T00:03:02;1.30;45.80
20005;DHT22;68409;45.498;-73.582;2023-03-31T00:05:36;1.30;46.40
20005;DHT22;68409;45.498;-73.582;2023-03-31T00:08:02;1.30;46.50
20005;DHT22;68409;45.498;-73.582;2023-03-31T00:10:33;1.20;46.40
20005;DHT22;68409;45.498;-73.582;2023-03-31T00:13:00;0.90;46.70
20005;DHT22;68409;45.498;-73.582;2023-03-31T00:15:26;1.10;46.90
20005;DHT22;68409;45.498;-73.582;2023-03-31T00:17:53;1.20;46.20
20005;DHT22;68409;45.498;-73.582;2023-03-31T00:20:19;1.10;46.10
20005;DHT22;68409;45.498;-73.582;2023-03-31T00:22:45;1.10;46.50
20005;DHT22;68409;45.498;-73.582;2023-03-31T00:25:12;1.40;46.20
20005;DHT22;68409;45.498;-73.582;2023-03-31T00:27:42;1.40;45.80
20005;DHT22;68409;45.498;-73.582;2023-03-31T00:30:09;1.00;46.50
20005;DHT22;68409;45.498;-73.582;2023-03-31T00:32:36;1.00;46.80
20005;DHT22;68409;45.498;-73.582;2023-03-31T00:35:02;0.90;46.80
20005;DHT22;68409;45.498;-73.582;2023-03-31T00:37:29;0.80;46.80
20005;DHT22;68409;45.498;-73.582;2023-03-31T00:39:55;0.80;47.10
20005;DHT22;68409;45.498;-73.582;2023-03-31T00:42:22;0.80;46.80
20005;DHT22;68409;45.498;-73.582;2023-03-31T00:48:03;1.00;46.70
20005;DHT22;68409;45.498;-73.582;2023-03-31T00:50:39;0.80;46.50
20005;DHT22;68409;45.498;-73.582;2023-03-31T00:53:09;1.20;46.00
20005;DHT22;68409;45.498;-73.582;2023-03-31T00:55:44;0.90;46.40
20005;DHT22;68409;45.498;-73.582;2023-03-31T00:58:11;1.00;46.40
20005;DHT22;68409;45.498;-73.582;2023-03-31T01:00:48;1.10;46.50
20005;DHT22;68409;45.498;-73.582;2023-03-31T01:03:18;1.10;46.30
20005;DHT22;68409;45.498;-73.582;2023-03-31T01:05:50;1.00;46.40
20005;DHT22;68409;45.498;-73.582;2023-03-31T01:08:21;1.10;46.30
20005;DHT22;68409;45.498;-73.582;2023-03-31T01:10:53;1.00;46.50
20005;DHT22;68409;45.498;-73.582;2023-03-31T01:13:21;0.80;47.10
20005;DHT22;68409;45.498;-73.582;2023-03-31T01:15:47;0.90;47.20
20005;DHT22;68409;45.498;-73.582;2023-03-31T01:18:15;0.90;47.10
20005;DHT22;68409;45.498;-73.582;2023-03-31T01:21:21;0.90;46.80
20005;DHT22;68409;45.498;-73.582;2023-03-31T01:32:31;1.20;47.20
20005;DHT22;68409;45.498;-73.582;2023-03-31T01:38:20;0.90;48.10
20005;DHT22;68409;45.498;-73.582;2023-03-31T01:46:51;1.00;48.80
20005;DHT22;68409;45.498;-73.582;2023-03-31T01:49:28;1.10;48.80
20005;DHT22;68409;45.498;-73.582;2023-03-31T01:52:27;1.00;49.10
20005;DHT22;68409;45.498;-73.582;2023-03-31T01:55:08;1.00;49.40
20005;DHT22;68409;45.498;-73.582;2023-03-31T01:57:49;0.80;49.40
20005;DHT22;68409;45.498;-73.582;2023-03-31T02:00:26;0.90;49.40
20005;DHT22;68409;45.498;-73.582;2023-03-31T02:05:37;0.80;50.00
20005;DHT22;68409;45.498;-73.582;2023-03-31T02:08:09;0.80;50.10
20005;DHT22;68409;45.498;-73.582;2023-03-31T02:10:39;1.10;50.00
20005;DHT22;68409;45.498;-73.582;2023-03-31T02:13:06;1.20;49.70
20005;DHT22;68409;45.498;-73.582;2023-03-31T02:15:39;1.30;49.40
20005;DHT22;68409;45.498;-73.582;2023-03-31T02:18:08;1.10;49.50
20005;DHT22;68409;45.498;-73.582;2023-03-31T02:20:38;1.10;49.90
20005;DHT22;68409;45.498;-73.582;2023-03-31T02:23:09;1.00;49.40
20005;DHT22;68409;45.498;-73.582;2023-03-31T02:25:52;0.90;49.50
20005;DHT22;68409;45.498;-73.582;2023-03-31T02:28:22;0.70;49.40
20005;DHT22;68409;45.498;-73.582;2023-03-31T02:33:24;0.90;49.30
20005;DHT22;68409;45.498;-73.582;2023-03-31T02:35:51;0.80;49.50
20005;DHT22;68409;45.498;-73.582;2023-03-31T02:38:17;0.80;49.80
20005;DHT22;68409;45.498;-73.582;2023-03-31T02:40:43;0.90;50.00
20005;DHT22;68409;45.498;-73.582;2023-03-31T02:43:10;0.80;50.10
20005;DHT22;68409;45.498;-73.582;2023-03-31T02:45:45;1.00;50.40
20005;DHT22;68409;45.498;-73.582;2023-03-31T02:48:22;1.00;50.40
20005;DHT22;68409;45.498;-73.582;2023-03-31T02:54:02;1.00;50.80
20005;DHT22;68409;45.498;-73.582;2023-03-31T03:05:24;1.00;51.80
20005;DHT22;68409;45.498;-73.582;2023-03-31T03:18:07;0.80;53.90
20005;DHT22;68409;45.498;-73.582;2023-03-31T03:20:33;0.80;54.20
20005;DHT22;68409;45.498;-73.582;2023-03-31T03:23:01;1.00;54.40
20005;DHT22;68409;45.498;-73.582;2023-03-31T03:25:27;0.80;54.10
20005;DHT22;68409;45.498;-73.582;2023-03-31T03:27:55;0.90;54.80
20005;DHT22;68409;45.498;-73.582;2023-03-31T03:30:21;0.70;55.20
20005;DHT22;68409;45.498;-73.582;2023-03-31T03:32:47;0.70;55.40
20005;DHT22;68409;45.498;-73.582;2023-03-31T03:35:13;0.90;55.00
20005;DHT22;68409;45.498;-73.582;2023-03-31T03:37:40;0.90;54.80
20005;DHT22;68409;45.498;-73.582;2023-03-31T03:40:06;0.70;54.40
20005;DHT22;68409;45.498;-73.582;2023-03-31T03:42:33;0.60;54.50
20005;DHT22;68409;45.498;-73.582;2023-03-31T03:45:00;0.50;54.60
20005;DHT22;68409;45.498;-73.582;2023-03-31T03:47:27;0.70;54.70
20005;DHT22;68409;45.498;-73.582;2023-03-31T03:49:53;0.80;55.20
20005;DHT22;68409;45.498;-73.582;2023-03-31T03:52:19;0.90;55.70
20005;DHT22;68409;45.498;-73.582;2023-03-31T03:54:46;1.20;57.50
20005;DHT22;68409;45.498;-73.582;2023-03-31T03:57:12;1.30;58.00
20005;DHT22;68409;45.498;-73.582;2023-03-31T03:59:38;1.10;58.20
20005;DHT22;68409;45.498;-73.582;2023-03-31T04:02:04;1.10;59.30
20005;DHT22;68409;45.498;-73.582;2023-03-31T04:04:30;1.00;59.70
20005;DHT22;68409;45.498;-73.582;2023-03-31T04:06:56;1.00;61.00
20005;DHT22;68409;45.498;-73.582;2023-03-31T04:09:22;1.00;61.80
20005;DHT22;68409;45.498;-73.582;2023-03-31T04:11:49;1.00;62.40
20005;DHT22;68409;45.498;-73.582;2023-03-31T04:14:15;1.00;62.90
20005;DHT22;68409;45.498;-73.582;2023-03-31T04:16:41;0.90;63.40
20005;DHT22;68409;45.498;-73.582;2023-03-31T04:19:07;0.80;64.10
20005;DHT22;68409;45.498;-73.582;2023-03-31T04:21:36;0.90;64.20
20005;DHT22;68409;45.498;-73.582;2023-03-31T04:24:12;0.80;64.70
20005;DHT22;68409;45.498;-73.582;2023-03-31T04:26:46;0.90;65.70
20005;DHT22;68409;45.498;-73.582;2023-03-31T04:29:16;0.80;66.30
20005;DHT22;68409;45.498;-73.582;2023-03-31T04:31:42;0.80;67.20
20005;DHT22;68409;45.498;-73.582;2023-03-31T04:34:10;0.70;68.20
20005;DHT22;68409;45.498;-73.582;2023-03-31T04:36:44;0.80;69.70
20005;DHT22;68409;45.498;-73.582;2023-03-31T04:39:15;1.00;71.00
20005;DHT22;68409;45.498;-73.582;2023-03-31T04:41:41;1.00;71.30
20005;DHT22;68409;45.498;-73.582;2023-03-31T04:44:08;1.10;72.00
20005;DHT22;68409;45.498;-73.582;2023-03-31T04:46:34;1.20;72.80
20005;DHT22;68409;45.498;-73.582;2023-03-31T04:49:01;1.10;73.10
20005;DHT22;68409;45.498;-73.582;2023-03-31T04:51:28;0.90;74.10
20005;DHT22;68409;45.498;-73.582;2023-03-31T04:53:54;0.80;75.00
20005;DHT22;68409;45.498;-73.582;2023-03-31T04:56:20;0.70;76.00
20005;DHT22;68409;45.498;-73.582;2023-03-31T04:58:47;0.70;76.50
20005;DHT22;68409;45.498;-73.582;2023-03-31T05:01:14;0.70;77.30
20005;DHT22;68409;45.498;-73.582;2023-03-31T05:03:43;0.70;77.50
20005;DHT22;68409;45.498;-73.582;2023-03-31T05:06:10;0.80;77.70
20005;DHT22;68409;45.498;-73.582;2023-03-31T05:08:36;0.80;77.60
20005;DHT22;68409;45.498;-73.582;2023-03-31T05:11:03;0.90;78.20
20005;DHT22;68409;45.498;-73.582;2023-03-31T05:13:29;1.00;78.00
20005;DHT22;68409;45.498;-73.582;2023-03-31T05:15:56;0.90;78.40
20005;DHT22;68409;45.498;-73.582;2023-03-31T05:18:22;0.80;78.80
20005;DHT22;68409;45.498;-73.582;2023-03-31T05:20:48;0.70;79.40
20005;DHT22;68409;45.498;-73.582;2023-03-31T05:23:14;0.80;79.90
20005;DHT22;68409;45.498;-73.582;2023-03-31T05:25:41;0.90;79.70
20005;DHT22;68409;45.498;-73.582;2023-03-31T05:28:07;1.00;79.50
20005;DHT22;68409;45.498;-73.582;2023-03-31T05:30:34;0.90;80.00
20005;DHT22;68409;45.498;-73.582;2023-03-31T05:33:01;0.80;79.80
20005;DHT22;68409;45.498;-73.582;2023-03-31T05:35:27;0.80;80.10
20005;DHT22;68409;45.498;-73.582;2023-03-31T05:37:54;0.80;80.70
20005;DHT22;68409;45.498;-73.582;2023-03-31T05:40:20;0.80;80.60
20005;DHT22;68409;45.498;-73.582;2023-03-31T05:42:46;0.90;81.20
20005;DHT22;68409;45.498;-73.582;2023-03-31T05:45:13;0.80;81.40
20005;DHT22;68409;45.498;-73.582;2023-03-31T05:47:39;0.90;81.30
20005;DHT22;68409;45.498;-73.582;2023-03-31T05:50:05;0.90;81.20
20005;DHT22;68409;45.498;-73.582;2023-03-31T05:52:34;0.80;81.40
20005;DHT22;68409;45.498;-73.582;2023-03-31T05:55:00;0.70;82.00
20005;DHT22;68409;45.498;-73.582;2023-03-31T05:57:26;0.90;82.10
20005;DHT22;68409;45.498;-73.582;2023-03-31T05:59:52;0.80;82.10
20005;DHT22;68409;45.498;-73.582;2023-03-31T06:02:18;0.60;82.50
20005;DHT22;68409;45.498;-73.582;2023-03-31T06:04:44;0.70;83.10
20005;DHT22;68409;45.498;-73.582;2023-03-31T06:07:10;0.70;82.70
20005;DHT22;68409;45.498;-73.582;2023-03-31T06:09:38;0.70;83.00
20005;DHT22;68409;45.498;-73.582;2023-03-31T06:12:04;0.70;83.20
20005;DHT22;68409;45.498;-73.582;2023-03-31T06:14:30;0.70;83.20
20005;DHT22;68409;45.498;-73.582;2023-03-31T06:16:56;0.70;83.70
20005;DHT22;68409;45.498;-73.582;2023-03-31T06:19:22;0.60;83.80
20005;DHT22;68409;45.498;-73.582;2023-03-31T06:21:49;0.60;84.30
20005;DHT22;68409;45.498;-73.582;2023-03-31T06:24:15;0.70;84.50
20005;DHT22;68409;45.498;-73.582;2023-03-31T06:26:41;0.70;84.10
20005;DHT22;68409;45.498;-73.582;2023-03-31T06:29:08;0.50;83.80
20005;DHT22;68409;45.498;-73.582;2023-03-31T06:31:34;0.40;84.40
20005;DHT22;68409;45.498;-73.582;2023-03-31T06:34:01;0.30;84.10
20005;DHT22;68409;45.498;-73.582;2023-03-31T06:36:27;0.40;84.40
20005;DHT22;68409;45.498;-73.582;2023-03-31T06:38:53;0.20;84.50
20005;DHT22;68409;45.498;-73.582;2023-03-31T06:41:19;0.10;85.30
20005;DHT22;68409;45.498;-73.582;2023-03-31T06:43:47;0.20;85.50
20005;DHT22;68409;45.498;-73.582;2023-03-31T06:46:13;0.30;85.00
20005;DHT22;68409;45.498;-73.582;2023-03-31T06:48:39;0.30;84.90
20005;DHT22;68409;45.498;-73.582;2023-03-31T06:51:07;0.30;84.70
20005;DHT22;68409;45.498;-73.582;2023-03-31T06:53:33;0.20;84.80
20005;DHT22;68409;45.498;-73.582;2023-03-31T06:56:00;0.30;84.90
20005;DHT22;68409;45.498;-73.582;2023-03-31T06:58:26;0.40;85.10
20005;DHT22;68409;45.498;-73.582;2023-03-31T07:00:52;0.30;84.50
20005;DHT22;68409;45.498;-73.582;2023-03-31T07:03:18;0.30;84.60
20005;DHT22;68409;45.498;-73.582;2023-03-31T07:05:51;0.30;84.00
20005;DHT22;68409;45.498;-73.582;2023-03-31T07:08:18;0.30;83.90
20005;DHT22;68409;45.498;-73.582;2023-03-31T07:10:45;0.20;83.40
20005;DHT22;68409;45.498;-73.582;2023-03-31T07:13:14;0.30;83.70
20005;DHT22;68409;45.498;-73.582;2023-03-31T07:15:40;0.50;82.80
20005;DHT22;68409;45.498;-73.582;2023-03-31T07:18:07;0.30;82.50
20005;DHT22;68409;45.498;-73.582;2023-03-31T07:20:34;0.20;82.90
20005;DHT22;68409;45.498;-73.582;2023-03-31T07:23:03;0.30;82.90
20005;DHT22;68409;45.498;-73.582;2023-03-31T07:25:29;0.40;82.70
20005;DHT22;68409;45.498;-73.582;2023-03-31T07:27:55;0.50;82.30
20005;DHT22;68409;45.498;-73.582;2023-03-31T07:30:22;0.30;82.10
20005;DHT22;68409;45.498;-73.582;2023-03-31T07:32:50;0.40;82.10
20005;DHT22;68409;45.498;-73.582;2023-03-31T07:35:17;0.30;81.90
20005;DHT22;68409;45.498;-73.582;2023-03-31T07:37:46;0.20;82.50
20005;DHT22;68409;45.498;-73.582;2023-03-31T07:40:18;0.10;82.30
20005;DHT22;68409;45.498;-73.582;2023-03-31T07:42:45;0.10;82.90
20005;DHT22;68409;45.498;-73.582;2023-03-31T07:45:16;0.20;83.20
20005;DHT22;68409;45.498;-73.582;2023-03-31T07:47:44;0.10;82.80
20005;DHT22;68409;45.498;-73.582;2023-03-31T07:50:12;0.20;83.10
20005;DHT22;68409;45.498;-73.582;2023-03-31T07:52:38;0.20;82.40
20005;DHT22;68409;45.498;-73.582;2023-03-31T07:55:05;0.20;83.00
20005;DHT22;68409;45.498;-73.582;2023-03-31T07:57:31;0.40;82.70
20005;DHT22;68409;45.498;-73.582;2023-03-31T07:59:57;0.20;82.50
20005;DHT22;68409;45.498;-73.582;2023-03-31T08:02:23;0.10;82.50
20005;DHT22;68409;45.498;-73.582;2023-03-31T08:04:50;0.10;82.70
20005;DHT22;68409;45.498;-73.582;2023-03-31T08:07:16;0.20;82.50
20005;DHT22;68409;45.498;-73.582;2023-03-31T08:09:44;0.20;82.60
20005;DHT22;68409;45.498;-73.582;2023-03-31T08:12:11;0.20;82.20
20005;DHT22;68409;45.498;-73.582;2023-03-31T08:14:37;0.10;82.90
20005;DHT22;68409;45.498;-73.582;2023-03-31T08:17:03;0.20;82.70
20005;DHT22;68409;45.498;-73.582;2023-03-31T08:19:29;0.20;82.20
20005;DHT22;68409;45.498;-73.582;2023-03-31T08:21:55;0.30;82.60
20005;DHT22;68409;45.498;-73.582;2023-03-31T08:24:22;0.10;82.60
20005;DHT22;68409;45.498;-73.582;2023-03-31T08:26:48;0.20;83.10
20005;DHT22;68409;45.498;-73.582;2023-03-31T08:29:14;0.10;83.00
20005;DHT22;68409;45.498;-73.582;2023-03-31T08:31:40;0.10;83.30
20005;DHT22;68409;45.498;-73.582;2023-03-31T08:34:06;0.00;83.50
20005;DHT22;68409;45.498;-73.582;2023-03-31T08:36:32;0.00;83.60
20005;DHT22;68409;45.498;-73.582;2023-03-31T08:38:59;0.00;84.00
20005;DHT22;68409;45.498;-73.582;2023-03-31T08:41:57;0.00;84.60
20005;DHT22;68409;45.498;-73.582;2023-03-31T08:44:41;-0.10;84.40
20005;DHT22;68409;45.498;-73.582;2023-03-31T08:47:20;-0.20;84.50
20005;DHT22;68409;45.498;-73.582;2023-03-31T08:49:52;-0.20;84.70
20005;DHT22;68409;45.498;-73.582;2023-03-31T08:52:23;-0.20;85.20
20005;DHT22;68409;45.498;-73.582;2023-03-31T08:54:56;-0.20;85.30
20005;DHT22;68409;45.498;-73.582;2023-03-31T08:57:51;-0.20;85.80
20005;DHT22;68409;45.498;-73.582;2023-03-31T09:00:19;-0.20;85.10
20005;DHT22;68409;45.498;-73.582;2023-03-31T09:06:02;0.00;85.00
20005;DHT22;68409;45.498;-73.582;2023-03-31T09:19:36;-0.50;86.60
20005;DHT22;68409;45.498;-73.582;2023-03-31T09:22:17;-0.40;87.30
20005;DHT22;68409;45.498;-73.582;2023-03-31T09:25:34;-0.40;87.70
20005;DHT22;68409;45.498;-73.582;2023-03-31T09:27:35;-0.40;87.90
20005;DHT22;68409;45.498;-73.582;2023-03-31T09:30:46;-0.40;89.00
20005;DHT22;68409;45.498;-73.582;2023-03-31T09:33:25;-0.40;88.40
20005;DHT22;68409;45.498;-73.582;2023-03-31T09:36:00;-0.30;88.50
20005;DHT22;68409;45.498;-73.582;2023-03-31T09:38:27;-0.20;89.00
20005;DHT22;68409;45.498;-73.582;2023-03-31T09:40:56;-0.20;89.00
20005;DHT22;68409;45.498;-73.582;2023-03-31T09:43:30;-0.30;88.50
20005;DHT22;68409;45.498;-73.582;2023-03-31T09:46:00;-0.20;89.10
20005;DHT22;68409;45.498;-73.582;2023-03-31T09:48:31;-0.20;88.80
20005;DHT22;68409;45.498;-73.582;2023-03-31T09:51:04;-0.10;89.20
20005;DHT22;68409;45.498;-73.582;2023-03-31T09:53:48;-0.20;89.10
20005;DHT22;68409;45.498;-73.582;2023-03-31T09:56:32;-0.10;89.90
20005;DHT22;68409;45.498;-73.582;2023-03-31T09:59:02;-0.20;89.80
20005;DHT22;68409;45.498;-73.582;2023-03-31T10:01:29;-0.20;90.00
20005;DHT22;68409;45.498;-73.582;2023-03-31T10:03:55;-0.10;90.10
20005;DHT22;68409;45.498;-73.582;2023-03-31T10:06:23;-0.20;90.10
20005;DHT22;68409;45.498;-73.582;2023-03-31T10:09:02;-0.20;90.30
20005;DHT22;68409;45.498;-73.582;2023-03-31T10:11:30;-0.30;90.50
20005;DHT22;68409;45.498;-73.582;2023-03-31T10:14:09;-0.40;90.60
20005;DHT22;68409;45.498;-73.582;2023-03-31T10:16:55;-0.50;90.90
20005;DHT22;68409;45.498;-73.582;2023-03-31T10:19:24;-0.50;91.20
20005;DHT22;68409;45.498;-73.582;2023-03-31T10:21:59;-0.50;91.30
20005;DHT22;68409;45.498;-73.582;2023-03-31T10:24:36;-0.50;91.80
20005;DHT22;68409;45.498;-73.582;2023-03-31T10:27:06;-0.40;92.10
20005;DHT22;68409;45.498;-73.582;2023-03-31T10:29:33;-0.30;92.00
20005;DHT22;68409;45.498;-73.582;2023-03-31T10:32:25;-0.40;91.90
20005;DHT22;68409;45.498;-73.582;2023-03-31T10:34:57;-0.50;92.30
20005;DHT22;68409;45.498;-73.582;2023-03-31T10:37:26;-0.30;92.30
20005;DHT22;68409;45.498;-73.582;2023-03-31T10:40:02;-0.30;92.20
20005;DHT22;68409;45.498;-73.582;2023-03-31T10:42:32;-0.30;92.30
20005;DHT22;68409;45.498;-73.582;2023-03-31T10:45:25;-0.20;91.90
20005;DHT22;68409;45.498;-73.582;2023-03-31T10:47:54;-0.10;91.30
20005;DHT22;68409;45.498;-73.582;2023-03-31T10:50:27;-0.20;91.50
20005;DHT22;68409;45.498;-73.582;2023-03-31T10:53:10;-0.20;91.70
20005;DHT22;68409;45.498;-73.582;2023-03-31T10:55:52;-0.10;91.90
20005;DHT22;68409;45.498;-73.582;2023-03-31T11:01:00;-0.10;91.20
20005;DHT22;68409;45.498;-73.582;2023-03-31T11:06:48;0.00;91.30
20005;DHT22;68409;45.498;-73.582;2023-03-31T11:10:06;-0.10;91.40
20005;DHT22;68409;45.498;-73.582;2023-03-31T11:12:43;-0.20;91.50
20005;DHT22;68409;45.498;-73.582;2023-03-31T11:15:41;-0.10;91.40
20005;DHT22;68409;45.498;-73.582;2023-03-31T11:18:25;0.10;91.00
20005;DHT22;68409;45.498;-73.582;2023-03-31T11:23:47;0.10;90.40
20005;DHT22;68409;45.498;-73.582;2023-03-31T11:42:52;0.50;89.50
20005;DHT22;68409;45.498;-73.582;2023-03-31T11:45:43;0.40;88.70
20005;DHT22;68409;45.498;-73.582;2023-03-31T11:51:08;0.40;88.30
20005;DHT22;68409;45.498;-73.582;2023-03-31T11:53:38;0.20;89.70
20005;DHT22;68409;45.498;-73.582;2023-03-31T11:56:08;0.10;90.00
20005;DHT22;68409;45.498;-73.582;2023-03-31T12:01:41;0.40;89.20
20005;DHT22;68409;45.498;-73.582;2023-03-31T12:06:51;0.40;87.80
20005;DHT22;68409;45.498;-73.582;2023-03-31T12:12:01;0.50;87.20
20005;DHT22;68409;45.498;-73.582;2023-03-31T12:17:32;0.30;88.30
20005;DHT22;68409;45.498;-73.582;2023-03-31T12:20:03;0.30;89.10
20005;DHT22;68409;45.498;-73.582;2023-03-31T12:22:43;0.40;89.10
20005;DHT22;68409;45.498;-73.582;2023-03-31T12:25:15;0.40;88.60
20005;DHT22;68409;45.498;-73.582;2023-03-31T12:27:46;0.50;89.50
20005;DHT22;68409;45.498;-73.582;2023-03-31T12:30:30;1.00;88.00
20005;DHT22;68409;45.498;-73.582;2023-03-31T12:33:06;0.90;86.70
20005;DHT22;68409;45.498;-73.582;2023-03-31T12:36:01;1.10;86.80
20005;DHT22;68409;45.498;-73.582;2023-03-31T12:44:28;0.90;86.20
20005;DHT22;68409;45.498;-73.582;2023-03-31T12:55:35;1.20;84.40
20005;DHT22;68409;45.498;-73.582;2023-03-31T13:08:58;1.90;81.10
20005;DHT22;68409;45.498;-73.582;2023-03-31T13:14:22;2.50;78.80
20005;DHT22;68409;45.498;-73.582;2023-03-31T13:16:51;2.50;78.00
20005;DHT22;68409;45.498;-73.582;2023-03-31T13:19:41;2.70;77.50
20005;DHT22;68409;45.498;-73.582;2023-03-31T13:22:28;2.90;76.00
20005;DHT22;68409;45.498;-73.582;2023-03-31T13:31:00;3.40;72.50
20005;DHT22;68409;45.498;-73.582;2023-03-31T13:33:45;3.30;72.40
20005;DHT22;68409;45.498;-73.582;2023-03-31T13:42:01;3.00;73.30
20005;DHT22;68409;45.498;-73.582;2023-03-31T14:01:29;4.50;71.30
20005;DHT22;68409;45.498;-73.582;2023-03-31T14:07:14;9.70;61.60
20005;DHT22;68409;45.498;-73.582;2023-03-31T14:09:43;12.90;56.10
20005;DHT22;68409;45.498;-73.582;2023-03-31T14:12:34;13.20;52.60
20005;DHT22;68409;45.498;-73.582;2023-03-31T14:15:02;13.40;52.10
20005;DHT22;68409;45.498;-73.582;2023-03-31T14:17:35;13.00;51.40
20005;DHT22;68409;45.498;-73.582;2023-03-31T14:20:38;14.10;50.70
20005;DHT22;68409;45.498;-73.582;2023-03-31T14:23:11;14.40;49.90
20005;DHT22;68409;45.498;-73.582;2023-03-31T14:31:07;14.30;48.80
20005;DHT22;68409;45.498;-73.582;2023-03-31T14:36:32;14.20;49.30
20005;DHT22;68409;45.498;-73.582;2023-03-31T14:39:05;13.60;49.10
20005;DHT22;68409;45.498;-73.582;2023-03-31T14:41:34;13.20;49.10
20005;DHT22;68409;45.498;-73.582;2023-03-31T14:44:10;12.80;49.10
20005;DHT22;68409;45.498;-73.582;2023-03-31T14:46:39;10.20;49.60
20005;DHT22;68409;45.498;-73.582;2023-03-31T14:51:52;7.90;54.30
20005;DHT22;68409;45.498;-73.582;2023-03-31T14:54:19;8.60;54.50
20005;DHT22;68409;45.498;-73.582;2023-03-31T14:56:52;9.50;53.60
20005;DHT22;68409;45.498;-73.582;2023-03-31T14:59:26;9.50;53.20
20005;DHT22;68409;45.498;-73.582;2023-03-31T15:01:56;10.10;51.90
20005;DHT22;68409;45.498;-73.582;2023-03-31T15:04:25;9.60;52.80
20005;DHT22;68409;45.498;-73.582;2023-03-31T15:06:52;8.90;53.20
20005;DHT22;68409;45.498;-73.582;2023-03-31T15:09:26;8.70;53.90
20005;DHT22;68409;45.498;-73.582;2023-03-31T15:11:59;7.40;54.10
20005;DHT22;68409;45.498;-73.582;2023-03-31T15:14:35;7.00;55.30
20005;DHT22;68409;45.498;-73.582;2023-03-31T15:17:03;6.50;55.70
20005;DHT22;68409;45.498;-73.582;2023-03-31T15:19:32;6.20;56.30
20005;DHT22;68409;45.498;-73.582;2023-03-31T15:22:18;6.10;57.40
20005;DHT22;68409;45.498;-73.582;2023-03-31T15:24:46;5.90;58.00
20005;DHT22;68409;45.498;-73.582;2023-03-31T15:29:59;6.40;56.90
20005;DHT22;68409;45.498;-73.582;2023-03-31T15:32:28;6.80;56.40
20005;DHT22;68409;45.498;-73.582;2023-03-31T15:34:56;6.10;56.60
20005;DHT22;68409;45.498;-73.582;2023-03-31T15:37:26;6.00;56.50
20005;DHT22;68409;45.498;-73.582;2023-03-31T15:39:57;5.50;57.40
20005;DHT22;68409;45.498;-73.582;2023-03-31T15:42:25;5.30;57.10
20005;DHT22;68409;45.498;-73.582;2023-03-31T15:47:52;5.80;57.80
20005;DHT22;68409;45.498;-73.582;2023-03-31T15:50:23;6.20;57.40
20005;DHT22;68409;45.498;-73.582;2023-03-31T15:52:51;6.20;57.50
20005;DHT22;68409;45.498;-73.582;2023-03-31T15:55:29;5.30;57.80
20005;DHT22;68409;45.498;-73.582;2023-03-31T15:57:58;5.20;58.60
20005;DHT22;68409;45.498;-73.582;2023-03-31T16:00:42;5.20;58.80
20005;DHT22;68409;45.498;-73.582;2023-03-31T16:03:28;5.00;58.70
20005;DHT22;68409;45.498;-73.582;2023-03-31T16:06:18;5.40;59.20
20005;DHT22;68409;45.498;-73.582;2023-03-31T16:08:50;5.50;59.00
20005;DHT22;68409;45.498;-73.582;2023-03-31T16:11:33;6.10;58.60
20005;DHT22;68409;45.498;-73.582;2023-03-31T16:14:10;5.70;57.90
20005;DHT22;68409;45.498;-73.582;2023-03-31T16:16:37;6.00;58.20
20005;DHT22;68409;45.498;-73.582;2023-03-31T16:19:08;6.40;57.30
20005;DHT22;68409;45.498;-73.582;2023-03-31T16:21:42;6.40;57.20
20005;DHT22;68409;45.498;-73.582;2023-03-31T16:24:10;6.30;57.10
20005;DHT22;68409;45.498;-73.582;2023-03-31T16:26:42;5.90;57.60
20005;DHT22;68409;45.498;-73.582;2023-03-31T16:29:09;5.90;57.70
20005;DHT22;68409;45.498;-73.582;2023-03-31T16:31:44;5.70;58.10
20005;DHT22;68409;45.498;-73.582;2023-03-31T16:34:11;5.80;58.20
20005;DHT22;68409;45.498;-73.582;2023-03-31T16:36:38;5.60;58.90
20005;DHT22;68409;45.498;-73.582;2023-03-31T16:39:05;5.40;59.40
20005;DHT22;68409;45.498;-73.582;2023-03-31T16:41:33;5.60;59.90
20005;DHT22;68409;45.498;-73.582;2023-03-31T16:44:00;5.50;59.90
20005;DHT22;68409;45.498;-73.582;2023-03-31T16:46:26;5.90;60.10
20005;DHT22;68409;45.498;-73.582;2023-03-31T16:48:54;5.90;60.20
20005;DHT22;68409;45.498;-73.582;2023-03-31T16:51:20;6.20;59.50
20005;DHT22;68409;45.498;-73.582;2023-03-31T16:53:47;6.50;59.50
20005;DHT22;68409;45.498;-73.582;2023-03-31T16:56:13;6.30;58.70
20005;DHT22;68409;45.498;-73.582;2023-03-31T16:58:40;6.20;59.00
20005;DHT22;68409;45.498;-73.582;2023-03-31T17:01:08;5.60;58.40
20005;DHT22;68409;45.498;-73.582;2023-03-31T17:03:35;5.50;59.30
20005;DHT22;68409;45.498;-73.582;2023-03-31T17:06:11;5.50;59.90
20005;DHT22;68409;45.498;-73.582;2023-03-31T17:08:39;5.60;59.80
20005;DHT22;68409;45.498;-73.582;2023-03-31T17:11:10;5.60;60.00
20005;DHT22;68409;45.498;-73.582;2023-03-31T17:13:39;5.70;59.60
20005;DHT22;68409;45.498;-73.582;2023-03-31T17:16:06;5.60;59.70
20005;DHT22;68409;45.498;-73.582;2023-03-31T17:18:34;5.20;59.40
20005;DHT22;68409;45.498;-73.582;2023-03-31T17:21:08;5.10;59.60
20005;DHT22;68409;45.498;-73.582;2023-03-31T17:23:35;5.00;60.00
20005;DHT22;68409;45.498;-73.582;2023-03-31T17:26:03;5.20;60.40
20005;DHT22;68409;45.498;-73.582;2023-03-31T17:28:29;5.30;58.50
20005;DHT22;68409;45.498;-73.582;2023-03-31T17:31:17;5.40;58.40
20005;DHT22;68409;45.498;-73.582;2023-03-31T17:33:49;5.80;58.50
20005;DHT22;68409;45.498;-73.582;2023-03-31T17:36:16;5.90;56.10
20005;DHT22;68409;45.498;-73.582;2023-03-31T17:38:42;6.10;56.10
20005;DHT22;68409;45.498;-73.582;2023-03-31T17:41:11;6.00;54.10
20005;DHT22;68409;45.498;-73.582;2023-03-31T17:43:38;5.70;53.80
20005;DHT22;68409;45.498;-73.582;2023-03-31T17:46:08;5.60;53.60
20005;DHT22;68409;45.498;-73.582;2023-03-31T17:48:37;5.50;53.30
20005;DHT22;68409;45.498;-73.582;2023-03-31T17:51:10;5.50;53.40
20005;DHT22;68409;45.498;-73.582;2023-03-31T17:53:38;5.30;53.50
20005;DHT22;68409;45.498;-73.582;2023-03-31T17:56:05;5.30;54.40
20005;DHT22;68409;45.498;-73.582;2023-03-31T17:58:33;5.40;53.80
20005;DHT22;68409;45.498;-73.582;2023-03-31T18:00:59;5.50;54.20
20005;DHT22;68409;45.498;-73.582;2023-03-31T18:03:29;5.30;54.50
20005;DHT22;68409;45.498;-73.582;2023-03-31T18:05:55;5.30;54.10
20005;DHT22;68409;45.498;-73.582;2023-03-31T18:08:21;5.20;54.40
20005;DHT22;68409;45.498;-73.582;2023-03-31T18:10:48;5.30;55.20
20005;DHT22;68409;45.498;-73.582;2023-03-31T18:13:16;5.40;55.30
20005;DHT22;68409;45.498;-73.582;2023-03-31T18:15:47;5.40;55.50
20005;DHT22;68409;45.498;-73.582;2023-03-31T18:18:17;5.30;55.50
20005;DHT22;68409;45.498;-73.582;2023-03-31T18:20:46;5.30;55.60
20005;DHT22;68409;45.498;-73.582;2023-03-31T18:23:12;5.60;55.80
20005;DHT22;68409;45.498;-73.582;2023-03-31T18:25:42;5.20;55.00
20005;DHT22;68409;45.498;-73.582;2023-03-31T18:28:10;5.40;55.70
20005;DHT22;68409;45.498;-73.582;2023-03-31T18:30:37;5.60;55.60
20005;DHT22;68409;45.498;-73.582;2023-03-31T18:33:04;5.30;54.70